Etusivu
METAR-TAF:

METAR-TAF

Lentoasemat :

Västerås, Ruotsi

Västeråsin lentoasema

Leveyspiiri: 59-35N, Pituuspiiri: 016-38E, korkeus merenpinnasta: 6 m

Tämänhetkinen sää

Tämä raportti tehtiin 11 minuuttia sitten, kello 10.20 UTC
Tuuli 7 kn idästä/koillisesta
Lämpötila 13°C
Kosteus 94%
Ilmanpaine 1032 hPa
Näkyvyys: 5000 m
Pilvistä 300 ft:n korkeudessa
utua

METAR: ESOW 241020Z 06007KT 5000 BR OVC003 13/12 Q1032

Aika: 12:31 (10:31 UTC)

Sääennuste

Tämä raportti tehtiin 2 tuntia ja 1 minuuttia sitten, kello 08.30 UTC
Ennuste voimassa 24. päivästä klo 09 UTC - 24. päivään klo 14 UTC
Tuuli 8 kn idästä/koillisesta
Näkyvyys: 6000 m
Pilvistä 200 ft:n korkeudessa
utua
Ajoittain
24. päivästä klo 09 UTC - 24. päivään klo 12 UTC
Näkyvyys: 2000 m
Tulossa
24. päivästä klo 12 UTC - 24. päivään klo 14 UTC
Hajonneita pilviä 600 ft:n korkeudessa

TAF: ESOW 240830Z 2409/2414 06008KT 6000 BR OVC002 TEMPO 2409/2412 2000 BECMG 2412/2414 BKN006

Säähavainnot ja -ennusteet yli 4000 lentoasemalta (METAR- ja TAF-raportit).

Käytössä olevat sääasemat on merkitty karttaan keltaisilla ja punaisilla pisteillä.

Aseta hiiri pisteen päälle nähdäksesi sääaseman nimen.

Klikkaa sitten nähdäksesi säähavainnot ja -ennusteet.

Kartan vaihtaminen: klikkaa mustalla rastilla varustettuja vihreitä pisteitä, niin voit zoomata sisään; viivalla varustettua vihreää pistettä, niin voit zoomata ulos tai vihreitä nuolia, niin pääset viereisille kartoille.


METAR-TAF: